Time;durP1;ratioP1;P1;durP2;ratioP2;P2;SDS_P1;SDS_P2;PMS_P1;PMS_P2;Temp;Humidity;BMP_temperature;BMP_pressure;BME280_temperature;BME280_humidity;BME280_pressure;Samples;Min_cycle;Max_cycle;Signal;HPM_P1;HPM_P2
2023/08/15 00:01:39;;;;;;;0.00;0.00;;;20.20;99.90;;;;;;4950524;28;20559;-70
2023/08/15 00:04:04;;;;;;;0.22;0.15;;;20.30;99.90;;;;;;4918959;28;20048;-70
2023/08/15 00:06:30;;;;;;;0.10;0.10;;;20.20;99.90;;;;;;4931664;28;20048;-70
2023/08/15 00:08:56;;;;;;;0.03;0.03;;;20.30;99.90;;;;;;4948620;28;20404;-71
2023/08/15 00:11:23;;;;;;;0.25;0.22;;;20.30;99.90;;;;;;4935617;28;20506;-71
2023/08/15 00:13:50;;;;;;;0.20;0.20;;;20.30;99.90;;;;;;4914081;28;20094;-71
2023/08/15 00:16:15;;;;;;;0.08;0.08;;;20.30;99.90;;;;;;4953434;28;20128;-70
2023/08/15 00:18:41;;;;;;;0.13;0.13;;;20.20;99.90;;;;;;4921774;28;20123;-70
2023/08/15 00:21:07;;;;;;;0.25;0.25;;;20.30;99.90;;;;;;4919767;28;20052;-71
2023/08/15 00:23:32;;;;;;;0.30;0.22;;;20.20;99.90;;;;;;4949423;28;20053;-71
2023/08/15 00:25:58;;;;;;;0.00;0.00;;;20.20;99.90;;;;;;4929001;28;20103;-71
2023/08/15 00:28:24;;;;;;;0.30;0.30;;;20.20;99.90;;;;;;4909294;28;20044;-71
2023/08/15 00:30:50;;;;;;;0.00;0.00;;;20.10;99.90;;;;;;4933513;28;20073;-70
2023/08/15 00:33:15;;;;;;;0.10;0.10;;;20.10;99.90;;;;;;4934931;28;20110;-70
2023/08/15 00:35:44;;;;;;;0.80;0.80;;;20.10;99.90;;;;;;4923261;28;20049;-71
2023/08/15 00:38:10;;;;;;;0.65;0.28;;;20.10;99.90;;;;;;4916631;28;20086;-71
2023/08/15 00:40:39;;;;;;;0.88;0.35;;;20.00;99.90;;;;;;4948352;28;20086;-71
2023/08/15 00:43:05;;;;;;;0.00;0.00;;;20.00;99.90;;;;;;4929457;28;20037;-71
2023/08/15 00:45:31;;;;;;;0.10;0.10;;;19.90;99.90;;;;;;4926077;28;20454;-71
2023/08/15 00:47:57;;;;;;;0.13;0.13;;;19.90;99.90;;;;;;4922073;28;20097;-70
2023/08/15 00:50:23;;;;;;;1.75;0.20;;;19.90;99.90;;;;;;4923756;28;20052;-71
2023/08/15 00:52:49;;;;;;;1.35;0.40;;;19.80;99.90;;;;;;4957786;28;20063;-71
2023/08/15 00:55:17;;;;;;;0.20;0.20;;;19.90;99.90;;;;;;4951976;28;20044;-71
2023/08/15 00:57:43;;;;;;;0.00;0.00;;;19.90;99.90;;;;;;4933697;28;20050;-71
2023/08/15 01:00:11;;;;;;;0.38;0.28;;;19.80;99.90;;;;;;4931822;28;20536;-70
2023/08/15 01:02:37;;;;;;;0.22;0.22;;;19.80;99.90;;;;;;4940497;28;20054;-71
2023/08/15 01:05:04;;;;;;;0.17;0.17;;;19.80;99.90;;;;;;4918304;28;20064;-71
2023/08/15 01:07:30;;;;;;;0.10;0.10;;;19.80;99.90;;;;;;4918214;28;20522;-71
2023/08/15 01:09:56;;;;;;;0.32;0.28;;;19.70;99.90;;;;;;4948352;28;20040;-70
2023/08/15 01:12:41;;;;;;;0.20;0.20;;;19.80;99.90;;;;;;4907299;28;20370;-71
2023/08/15 01:15:15;;;;;;;1.63;1.13;;;19.70;99.90;;;;;;4914775;28;20044;-70
2023/08/15 01:17:58;;;;;;;0.15;0.15;;;19.70;99.90;;;;;;4927985;28;20052;-70
2023/08/15 01:20:30;;;;;;;8.50;1.97;;;19.70;99.90;;;;;;4926856;28;20047;-70
2023/08/15 01:22:59;;;;;;;0.17;0.15;;;19.60;99.90;;;;;;4939253;28;20145;-71
2023/08/15 01:25:25;;;;;;;0.10;0.10;;;19.60;99.90;;;;;;4930700;28;20052;-71
2023/08/15 01:27:51;;;;;;;0.88;0.32;;;19.60;99.90;;;;;;4912187;28;20040;-70
2023/08/15 01:30:21;;;;;;;1.65;0.38;;;19.60;99.90;;;;;;4918708;28;20044;-70
2023/08/15 01:32:52;;;;;;;0.00;0.00;;;19.70;99.90;;;;;;4927174;28;20054;-70
2023/08/15 01:35:24;;;;;;;0.45;0.43;;;19.60;99.90;;;;;;4902858;28;20139;-70
2023/08/15 01:38:07;;;;;;;7.07;1.05;;;19.50;99.90;;;;;;4905287;28;20048;-70
2023/08/15 01:40:37;;;;;;;0.20;0.20;;;19.50;99.90;;;;;;4916829;28;20143;-71
2023/08/15 01:43:05;;;;;;;0.10;0.10;;;19.60;99.90;;;;;;4941814;28;20052;-70
2023/08/15 01:45:31;;;;;;;0.17;0.10;;;19.50;99.90;;;;;;4932413;28;20040;-70
2023/08/15 01:47:57;;;;;;;0.10;0.10;;;19.50;99.90;;;;;;4923007;28;20052;-70
2023/08/15 01:50:23;;;;;;;0.00;0.00;;;19.40;99.90;;;;;;4905911;28;20879;-70
2023/08/15 01:52:48;;;;;;;0.55;0.55;;;19.40;99.90;;;;;;4912747;28;20139;-71
2023/08/15 01:55:14;;;;;;;0.47;0.38;;;19.40;99.90;;;;;;4917728;28;20040;-71
2023/08/15 01:57:40;;;;;;;0.00;0.00;;;19.40;99.90;;;;;;4918970;28;20044;-70
2023/08/15 02:00:06;;;;;;;0.80;0.80;;;19.30;99.90;;;;;;4917092;28;20076;-70
2023/08/15 02:02:32;;;;;;;0.68;0.20;;;19.30;99.90;;;;;;4940665;28;20071;-72
2023/08/15 02:05:01;;;;;;;0.10;0.10;;;19.20;99.90;;;;;;4914011;28;20083;-70
2023/08/15 02:07:27;;;;;;;2.15;0.35;;;19.00;99.90;;;;;;4932940;28;20106;-70
2023/08/15 02:09:53;;;;;;;0.28;0.28;;;19.10;99.90;;;;;;4918576;28;20052;-70
2023/08/15 02:12:18;;;;;;;0.05;0.05;;;19.20;99.90;;;;;;4901823;28;20131;-70
2023/08/15 02:14:44;;;;;;;0.50;0.50;;;19.10;99.90;;;;;;4938073;28;20049;-70
2023/08/15 02:17:10;;;;;;;0.38;0.38;;;19.10;99.90;;;;;;4922456;28;20055;-69
2023/08/15 02:19:35;;;;;;;0.10;0.10;;;19.20;99.90;;;;;;4912994;28;20048;-69
2023/08/15 02:22:01;;;;;;;0.85;0.65;;;19.10;99.90;;;;;;4933291;28;20052;-70
2023/08/15 02:24:26;;;;;;;0.13;0.13;;;19.00;99.90;;;;;;4913085;28;20045;-70
2023/08/15 02:26:52;;;;;;;0.00;0.00;;;19.10;99.90;;;;;;4910619;28;20028;-70
2023/08/15 02:29:18;;;;;;;0.03;0.03;;;18.90;99.90;;;;;;4914686;28;20508;-70
2023/08/15 02:31:46;;;;;;;1.23;1.15;;;19.00;99.90;;;;;;4934526;28;20433;-69
2023/08/15 02:34:11;;;;;;;0.00;0.00;;;19.00;99.90;;;;;;4928952;28;20059;-69
2023/08/15 02:36:37;;;;;;;0.22;0.10;;;19.00;99.90;;;;;;4934861;28;20052;-70
2023/08/15 02:39:03;;;;;;;0.00;0.00;;;19.10;99.90;;;;;;4926441;28;20042;-70
2023/08/15 02:41:29;;;;;;;0.80;0.70;;;19.10;99.90;;;;;;4942829;28;20451;-70
2023/08/15 02:43:54;;;;;;;5.13;0.90;;;19.20;99.90;;;;;;4975128;28;20042;-70
2023/08/15 02:46:20;;;;;;;0.00;0.00;;;19.20;99.90;;;;;;4940516;28;20116;-69
2023/08/15 02:48:45;;;;;;;0.30;0.30;;;19.20;99.90;;;;;;4921745;28;20389;-69
2023/08/15 02:51:11;;;;;;;0.40;0.40;;;19.30;99.90;;;;;;4936134;28;20057;-69
2023/08/15 02:53:37;;;;;;;0.73;0.52;;;19.30;99.90;;;;;;4910235;28;20131;-69
2023/08/15 02:56:02;;;;;;;1.45;0.30;;;19.30;99.90;;;;;;4927193;28;20124;-69
2023/08/15 02:58:28;;;;;;;0.65;0.65;;;19.30;99.90;;;;;;4929650;28;20357;-70
2023/08/15 03:00:53;;;;;;;0.55;0.52;;;19.20;99.90;;;;;;4934556;28;20547;-70
2023/08/15 03:03:19;;;;;;;0.90;0.63;;;19.20;99.90;;;;;;4954145;28;20912;-70
2023/08/15 03:05:44;;;;;;;0.10;0.10;;;19.20;99.90;;;;;;4927416;28;20044;-69
2023/08/15 03:08:10;;;;;;;0.30;0.30;;;19.20;99.90;;;;;;4926552;28;20183;-69
2023/08/15 03:10:38;;;;;;;0.15;0.15;;;19.20;99.90;;;;;;4935697;28;20051;-70
2023/08/15 03:13:04;;;;;;;0.85;0.75;;;19.20;99.90;;;;;;4937118;28;20067;-70
2023/08/15 03:15:29;;;;;;;0.55;0.47;;;19.20;99.90;;;;;;4930071;28;20087;-70
2023/08/15 03:17:57;;;;;;;0.63;0.50;;;19.20;99.90;;;;;;4915276;28;20048;-70
2023/08/15 03:20:22;;;;;;;0.13;0.13;;;19.20;99.90;;;;;;4925972;28;20062;-70
2023/08/15 03:22:48;;;;;;;0.80;0.73;;;19.20;99.90;;;;;;4932262;28;20491;-70
2023/08/15 03:25:13;;;;;;;0.45;0.45;;;19.20;99.90;;;;;;4941528;28;20109;-70
2023/08/15 03:27:39;;;;;;;0.17;0.17;;;19.20;99.90;;;;;;4944341;28;20049;-70
2023/08/15 03:30:06;;;;;;;0.63;0.63;;;19.20;99.90;;;;;;4932731;28;20047;-70
2023/08/15 03:32:31;;;;;;;0.10;0.10;;;19.20;99.90;;;;;;4926981;28;20159;-70
2023/08/15 03:34:57;;;;;;;0.73;0.40;;;19.10;99.90;;;;;;4934826;28;20174;-70
2023/08/15 03:37:23;;;;;;;0.15;0.15;;;19.00;99.90;;;;;;4908469;28;20048;-70
2023/08/15 03:39:48;;;;;;;0.00;0.00;;;19.00;99.90;;;;;;4930248;28;21596;-70
2023/08/15 03:42:14;;;;;;;0.45;0.35;;;19.00;99.90;;;;;;4939597;28;20043;-70
2023/08/15 03:44:39;;;;;;;0.38;0.38;;;19.00;99.90;;;;;;4943489;28;20051;-70
2023/08/15 03:47:05;;;;;;;0.20;0.20;;;18.90;99.90;;;;;;4919935;28;20047;-70
2023/08/15 03:49:31;;;;;;;0.00;0.00;;;18.90;99.90;;;;;;4909576;28;20377;-70
2023/08/15 03:51:57;;;;;;;0.10;0.10;;;18.90;99.90;;;;;;4924109;28;20048;-70
2023/08/15 03:54:23;;;;;;;0.20;0.15;;;18.90;99.90;;;;;;4918802;28;20458;-70
2023/08/15 03:56:48;;;;;;;0.45;0.40;;;18.90;99.90;;;;;;4908327;28;20044;-70
2023/08/15 03:59:14;;;;;;;0.00;0.00;;;18.90;99.90;;;;;;4924528;28;20048;-70
2023/08/15 04:01:40;;;;;;;0.57;0.50;;;18.80;99.90;;;;;;4973928;28;20543;-70
2023/08/15 04:04:06;;;;;;;0.32;0.32;;;18.80;99.90;;;;;;4923836;28;20047;-70
2023/08/15 04:06:31;;;;;;;0.10;0.10;;;18.80;99.90;;;;;;4939534;28;20046;-69
2023/08/15 04:08:57;;;;;;;0.50;0.45;;;18.80;99.90;;;;;;4963930;28;20040;-70
2023/08/15 04:11:23;;;;;;;0.08;0.08;;;18.70;99.90;;;;;;4948887;28;20041;-70
2023/08/15 04:13:48;;;;;;;0.22;0.22;;;18.70;99.90;;;;;;4940097;28;20044;-70
2023/08/15 04:16:14;;;;;;;0.10;0.10;;;18.70;99.90;;;;;;4932328;28;20463;-70
2023/08/15 04:18:40;;;;;;;0.00;0.00;;;18.70;99.90;;;;;;4964057;28;20123;-70
2023/08/15 04:21:06;;;;;;;0.73;0.47;;;18.70;99.90;;;;;;4960607;28;20048;-70
2023/08/15 04:23:31;;;;;;;0.00;0.00;;;18.60;99.90;;;;;;4926742;28;20049;-69
2023/08/15 04:25:57;;;;;;;3.20;1.13;;;18.50;99.90;;;;;;4943594;28;20040;-70
2023/08/15 04:28:23;;;;;;;0.00;0.00;;;18.60;99.90;;;;;;4932516;28;20495;-70
2023/08/15 04:30:48;;;;;;;0.00;0.00;;;18.60;99.90;;;;;;4937157;28;20026;-70
2023/08/15 04:33:14;;;;;;;2.05;0.57;;;18.60;99.90;;;;;;4937818;28;20586;-70
2023/08/15 04:35:39;;;;;;;11.77;0.88;;;18.60;99.90;;;;;;4975255;28;20052;-70
2023/08/15 04:38:05;;;;;;;0.28;0.25;;;18.60;99.90;;;;;;4913509;28;20686;-70
2023/08/15 04:40:43;;;;;;;0.00;0.00;;;18.60;99.90;;;;;;4953868;28;20052;-70
2023/08/15 04:43:10;;;;;;;0.03;0.03;;;18.60;99.90;;;;;;4967411;28;20132;-70
2023/08/15 04:45:45;;;;;;;0.17;0.17;;;18.60;99.90;;;;;;4924708;28;20128;-70
2023/08/15 04:48:12;;;;;;;0.00;0.00;;;18.50;99.90;;;;;;4921202;28;20094;-70
2023/08/15 04:50:38;;;;;;;0.10;0.10;;;18.60;99.90;;;;;;4950506;28;20053;-70
2023/08/15 04:53:05;;;;;;;0.03;0.03;;;18.50;99.90;;;;;;4927194;28;20410;-70
2023/08/15 04:55:30;;;;;;;0.10;0.10;;;18.50;99.90;;;;;;4937384;28;20110;-69
2023/08/15 04:57:56;;;;;;;0.08;0.08;;;18.60;99.90;;;;;;4920468;28;20777;-69
2023/08/15 05:00:22;;;;;;;1.02;0.47;;;18.60;99.90;;;;;;4930011;28;20088;-70
2023/08/15 05:02:47;;;;;;;0.00;0.00;;;18.60;99.90;;;;;;4912609;28;20110;-70
2023/08/15 05:05:13;;;;;;;0.10;0.10;;;18.50;99.90;;;;;;4933390;28;20365;-70
2023/08/15 05:07:39;;;;;;;0.00;0.00;;;18.50;99.90;;;;;;4903948;28;20040;-70
2023/08/15 05:10:05;;;;;;;0.32;0.32;;;18.50;99.90;;;;;;4905395;28;20052;-69
2023/08/15 05:12:31;;;;;;;0.10;0.10;;;18.60;99.90;;;;;;4960342;28;20121;-69
2023/08/15 05:14:56;;;;;;;0.00;0.00;;;18.60;99.90;;;;;;4925225;28;20129;-69
2023/08/15 05:17:22;;;;;;;0.45;0.43;;;18.60;99.90;;;;;;4926571;28;20044;-69
2023/08/15 05:19:47;;;;;;;0.00;0.00;;;18.60;99.90;;;;;;4946775;28;20154;-70
2023/08/15 05:22:13;;;;;;;0.00;0.00;;;18.60;99.90;;;;;;4930485;28;20079;-70
2023/08/15 05:24:39;;;;;;;0.00;0.00;;;18.50;99.90;;;;;;4912356;28;20048;-70
2023/08/15 05:27:04;;;;;;;0.30;0.30;;;18.60;99.90;;;;;;4914536;28;20040;-70
2023/08/15 05:29:30;;;;;;;0.10;0.10;;;18.50;99.90;;;;;;4953518;28;20711;-70
2023/08/15 05:31:56;;;;;;;1.02;0.65;;;18.50;99.90;;;;;;4923423;28;20377;-69
2023/08/15 05:34:21;;;;;;;0.17;0.17;;;18.50;99.90;;;;;;4918318;28;20044;-70
2023/08/15 05:36:47;;;;;;;0.52;0.10;;;18.50;99.90;;;;;;4935478;28;20042;-70
2023/08/15 05:39:12;;;;;;;1.20;0.52;;;18.50;99.90;;;;;;4927880;28;20067;-70
2023/08/15 05:41:38;;;;;;;0.40;0.10;;;18.60;99.90;;;;;;4921826;28;20468;-69
2023/08/15 05:44:04;;;;;;;0.00;0.00;;;18.60;99.90;;;;;;4926929;28;20071;-70
2023/08/15 05:46:29;;;;;;;0.10;0.10;;;18.70;99.90;;;;;;4920759;28;20066;-70
2023/08/15 05:48:55;;;;;;;0.05;0.05;;;18.70;99.90;;;;;;4949446;28;20060;-70
2023/08/15 05:51:21;;;;;;;0.20;0.20;;;18.70;99.90;;;;;;4911676;28;20052;-70
2023/08/15 05:53:46;;;;;;;0.65;0.65;;;18.70;99.90;;;;;;4917753;28;20044;-69
2023/08/15 05:56:12;;;;;;;0.75;0.73;;;18.70;99.90;;;;;;4940902;28;20107;-70
2023/08/15 05:58:37;;;;;;;0.00;0.00;;;18.70;99.90;;;;;;4916307;28;20121;-69
2023/08/15 06:01:04;;;;;;;0.00;0.00;;;18.70;99.90;;;;;;4913352;28;20591;-70
2023/08/15 06:03:30;;;;;;;0.10;0.10;;;18.70;99.90;;;;;;4921227;28;20048;-70
2023/08/15 06:05:58;;;;;;;0.15;0.15;;;18.70;99.90;;;;;;4962420;28;20400;-70
2023/08/15 06:08:24;;;;;;;0.00;0.00;;;18.80;99.90;;;;;;4938322;28;20084;-70
2023/08/15 06:10:49;;;;;;;0.20;0.20;;;18.80;99.90;;;;;;4936523;28;20044;-70
2023/08/15 06:13:15;;;;;;;0.00;0.00;;;18.90;99.90;;;;;;4924083;28;20045;-70
2023/08/15 06:15:41;;;;;;;0.17;0.10;;;18.90;99.90;;;;;;4937795;28;20634;-69
2023/08/15 06:18:06;;;;;;;0.38;0.38;;;19.00;99.90;;;;;;4950524;28;20412;-70
2023/08/15 06:20:32;;;;;;;0.90;0.25;;;19.00;99.90;;;;;;4907680;28;20079;-70
2023/08/15 06:22:57;;;;;;;0.20;0.08;;;19.10;99.90;;;;;;4905754;28;20056;-69
2023/08/15 06:25:23;;;;;;;0.00;0.00;;;19.20;99.90;;;;;;4912144;28;20036;-70
2023/08/15 06:27:49;;;;;;;0.00;0.00;;;19.20;99.90;;;;;;4928002;28;20038;-70
2023/08/15 06:30:14;;;;;;;0.00;0.00;;;19.20;99.90;;;;;;4907735;28;20107;-70
2023/08/15 06:32:40;;;;;;;0.93;0.93;;;19.20;99.90;;;;;;4907879;28;20060;-70
2023/08/15 06:35:06;;;;;;;0.00;0.00;;;19.30;99.90;;;;;;4909638;28;20123;-69
2023/08/15 06:37:32;;;;;;;0.00;0.00;;;19.30;99.90;;;;;;4937198;28;20056;-70
2023/08/15 06:39:58;;;;;;;0.32;0.32;;;19.40;99.90;;;;;;4932922;28;20518;-70
2023/08/15 06:42:23;;;;;;;0.10;0.10;;;19.50;99.90;;;;;;4941047;28;20136;-70
2023/08/15 06:44:49;;;;;;;0.00;0.00;;;19.50;99.90;;;;;;4907748;28;20537;-69
2023/08/15 06:47:14;;;;;;;2.97;0.90;;;19.50;99.90;;;;;;4929420;28;20038;-70
2023/08/15 06:49:40;;;;;;;0.20;0.20;;;19.60;99.90;;;;;;4910153;28;20131;-69
2023/08/15 06:52:07;;;;;;;1.65;0.95;;;19.60;99.90;;;;;;4914450;28;20055;-70
2023/08/15 06:54:33;;;;;;;0.00;0.00;;;19.70;99.90;;;;;;4914008;28;20052;-70
2023/08/15 06:56:58;;;;;;;0.05;0.05;;;19.70;99.90;;;;;;4945921;28;20052;-70
2023/08/15 06:59:24;;;;;;;0.03;0.03;;;19.70;99.90;;;;;;4932886;28;20075;-70
2023/08/15 07:01:52;;;;;;;0.00;0.00;;;19.80;99.90;;;;;;4914499;28;20050;-70
2023/08/15 07:04:19;;;;;;;0.05;0.05;;;19.80;99.90;;;;;;4949134;28;20401;-70
2023/08/15 07:06:44;;;;;;;0.47;0.35;;;19.80;99.90;;;;;;4960494;28;20574;-69
2023/08/15 07:09:14;;;;;;;0.15;0.08;;;19.90;99.90;;;;;;4931415;28;20094;-70
2023/08/15 07:11:40;;;;;;;0.00;0.00;;;19.90;99.90;;;;;;4929330;28;20051;-69
2023/08/15 07:14:05;;;;;;;0.10;0.10;;;20.00;99.90;;;;;;4965814;28;20167;-70
2023/08/15 07:16:31;;;;;;;0.00;0.00;;;20.00;99.90;;;;;;4918131;28;20049;-69
2023/08/15 07:18:57;;;;;;;0.22;0.22;;;20.10;99.90;;;;;;4915246;28;20080;-70
2023/08/15 07:21:23;;;;;;;7.93;0.43;;;20.10;99.90;;;;;;4960754;28;20087;-70
2023/08/15 07:23:48;;;;;;;0.00;0.00;;;20.20;99.90;;;;;;4918235;28;20045;-70
2023/08/15 07:26:14;;;;;;;0.20;0.13;;;20.20;99.90;;;;;;4941480;28;20055;-70
2023/08/15 07:28:40;;;;;;;0.03;0.03;;;20.20;99.90;;;;;;4933229;28;20146;-70
2023/08/15 07:31:05;;;;;;;0.20;0.20;;;20.20;99.90;;;;;;4944957;28;20125;-70
2023/08/15 07:33:31;;;;;;;0.00;0.00;;;20.20;99.90;;;;;;4936735;28;20052;-70
2023/08/15 07:35:57;;;;;;;0.00;0.00;;;20.20;99.90;;;;;;4937915;28;20037;-70
2023/08/15 07:38:22;;;;;;;0.08;0.08;;;20.40;99.90;;;;;;4953340;28;20496;-70
2023/08/15 07:40:49;;;;;;;0.00;0.00;;;20.40;99.90;;;;;;4941036;28;20099;-69
2023/08/15 07:43:15;;;;;;;0.00;0.00;;;20.50;99.90;;;;;;4951616;28;20048;-69
2023/08/15 07:45:40;;;;;;;0.00;0.00;;;20.50;99.90;;;;;;4960959;28;20405;-69
2023/08/15 07:48:06;;;;;;;0.05;0.05;;;20.50;99.90;;;;;;4918038;28;20099;-69
2023/08/15 07:50:32;;;;;;;0.00;0.00;;;20.60;99.90;;;;;;4913817;28;20041;-69
2023/08/15 07:52:58;;;;;;;0.03;0.03;;;20.70;99.90;;;;;;4920226;28;20671;-69
2023/08/15 07:55:24;;;;;;;0.00;0.00;;;20.60;99.90;;;;;;4930596;28;20050;-70
2023/08/15 07:57:50;;;;;;;0.00;0.00;;;20.60;99.90;;;;;;4956737;28;20044;-70
2023/08/15 08:00:16;;;;;;;0.00;0.00;;;20.60;99.90;;;;;;4928021;28;20510;-69
2023/08/15 08:02:44;;;;;;;0.00;0.00;;;20.60;99.90;;;;;;4933164;28;20049;-69
2023/08/15 08:05:11;;;;;;;0.00;0.00;;;20.60;99.90;;;;;;4913896;28;20063;-70
2023/08/15 08:07:39;;;;;;;0.00;0.00;;;20.60;99.90;;;;;;4917894;28;20048;-70
2023/08/15 08:10:05;;;;;;;2.80;1.55;;;20.60;99.90;;;;;;4932294;28;20428;-69
2023/08/15 08:12:31;;;;;;;0.38;0.38;;;20.70;99.90;;;;;;4926656;28;20362;-69
2023/08/15 08:14:57;;;;;;;0.30;0.30;;;20.70;99.90;;;;;;4933633;28;20036;-69
2023/08/15 08:17:23;;;;;;;0.00;0.00;;;20.80;99.90;;;;;;4928782;28;20133;-69
2023/08/15 08:19:49;;;;;;;0.10;0.10;;;20.70;99.90;;;;;;4921623;28;20047;-69
2023/08/15 08:22:15;;;;;;;0.57;0.47;;;20.70;99.90;;;;;;4939059;28;20074;-69
2023/08/15 08:24:40;;;;;;;0.00;0.00;;;20.70;99.90;;;;;;4921330;28;20119;-69
2023/08/15 08:27:06;;;;;;;0.00;0.00;;;20.70;99.90;;;;;;4921298;28;20044;-69
2023/08/15 08:29:31;;;;;;;0.32;0.32;;;20.80;99.90;;;;;;4925932;28;20396;-69
2023/08/15 08:31:57;;;;;;;0.20;0.10;;;20.80;99.90;;;;;;4909871;28;20163;-70
2023/08/15 08:34:23;;;;;;;0.32;0.28;;;20.80;99.90;;;;;;4921644;28;20052;-70
2023/08/15 08:36:48;;;;;;;0.10;0.10;;;20.90;99.90;;;;;;4909154;28;20052;-70
2023/08/15 08:39:14;;;;;;;0.00;0.00;;;20.90;99.90;;;;;;4917273;28;20177;-70
2023/08/15 08:41:40;;;;;;;0.00;0.00;;;21.00;99.90;;;;;;4946829;28;20056;-69
2023/08/15 08:44:06;;;;;;;1.20;0.45;;;21.00;99.90;;;;;;4912992;28;20040;-70
2023/08/15 08:46:33;;;;;;;5.10;2.10;;;21.10;99.90;;;;;;4929790;28;20537;-71
2023/08/15 08:49:00;;;;;;;0.00;0.00;;;21.20;99.90;;;;;;4939404;28;20164;-70
2023/08/15 08:51:27;;;;;;;0.22;0.17;;;21.10;99.90;;;;;;4918692;28;20118;-70
2023/08/15 08:53:53;;;;;;;0.20;0.20;;;21.20;99.90;;;;;;4926901;28;20044;-70
2023/08/15 08:56:23;;;;;;;0.00;0.00;;;21.20;99.90;;;;;;4945769;28;20501;-70
2023/08/15 08:58:53;;;;;;;0.00;0.00;;;21.20;99.90;;;;;;4934442;28;20399;-70
2023/08/15 09:01:19;;;;;;;0.20;0.20;;;21.20;99.90;;;;;;4935675;28;20077;-70
2023/08/15 09:03:45;;;;;;;0.00;0.00;;;21.20;99.90;;;;;;4936207;28;20075;-70
2023/08/15 09:06:11;;;;;;;0.10;0.10;;;21.20;99.90;;;;;;4945207;28;20045;-70
2023/08/15 09:08:37;;;;;;;0.00;0.00;;;21.20;99.90;;;;;;4914946;28;20036;-70
2023/08/15 09:11:02;;;;;;;0.32;0.32;;;21.20;99.90;;;;;;4944028;28;20106;-70
2023/08/15 09:13:28;;;;;;;0.10;0.10;;;21.20;99.90;;;;;;4946256;28;20482;-70
2023/08/15 09:15:58;;;;;;;0.00;0.00;;;21.30;99.90;;;;;;4923334;28;20056;-70
2023/08/15 09:18:26;;;;;;;0.00;0.00;;;21.50;99.90;;;;;;4913755;28;20040;-70
2023/08/15 09:20:52;;;;;;;1.55;0.43;;;22.00;99.90;;;;;;4951405;28;20042;-69
2023/08/15 09:23:18;;;;;;;0.25;0.10;;;22.60;99.90;;;;;;4920039;28;20048;-70
2023/08/15 09:25:44;;;;;;;0.00;0.00;;;22.70;99.90;;;;;;4933074;28;20535;-69
2023/08/15 09:28:09;;;;;;;0.00;0.00;;;23.20;99.90;;;;;;4928033;28;20130;-70
2023/08/15 09:30:36;;;;;;;0.00;0.00;;;23.60;99.90;;;;;;4971202;28;20116;-70
2023/08/15 09:33:03;;;;;;;0.00;0.00;;;23.60;99.90;;;;;;4927787;28;20063;-69
2023/08/15 09:35:32;;;;;;;0.20;0.20;;;23.40;99.90;;;;;;4934564;28;20139;-70
2023/08/15 09:38:05;;;;;;;0.00;0.00;;;23.50;99.90;;;;;;4945918;28;20049;-70
2023/08/15 09:40:32;;;;;;;0.32;0.32;;;23.50;99.90;;;;;;4918100;28;20059;-70
2023/08/15 09:42:57;;;;;;;0.30;0.30;;;23.40;99.90;;;;;;4930358;28;20498;-70
2023/08/15 09:45:24;;;;;;;0.00;0.00;;;23.90;99.90;;;;;;4929302;28;20044;-69
2023/08/15 09:47:50;;;;;;;0.00;0.00;;;23.80;99.90;;;;;;4930408;28;20461;-70
2023/08/15 09:50:16;;;;;;;0.22;0.22;;;23.80;99.90;;;;;;4929231;28;20048;-71
2023/08/15 09:52:44;;;;;;;0.00;0.00;;;24.10;99.90;;;;;;4941681;28;20041;-71
2023/08/15 09:55:14;;;;;;;0.00;0.00;;;23.80;99.90;;;;;;4962528;28;20437;-70
2023/08/15 09:57:44;;;;;;;0.00;0.00;;;23.60;99.90;;;;;;4921558;28;20127;-71
2023/08/15 10:00:17;;;;;;;0.45;0.45;;;23.30;99.90;;;;;;4925505;28;20044;-71
2023/08/15 10:02:55;;;;;;;0.03;0.03;;;23.00;99.90;;;;;;4908949;28;20679;-69
2023/08/15 10:05:23;;;;;;;17.63;0.70;;;23.00;99.90;;;;;;4910346;28;20052;-70
2023/08/15 10:07:50;;;;;;;0.47;0.25;;;23.00;99.90;;;;;;4923120;28;20070;-69
2023/08/15 10:10:16;;;;;;;0.10;0.10;;;23.00;99.90;;;;;;4929830;28;20123;-68
2023/08/15 10:12:45;;;;;;;0.00;0.00;;;22.90;99.90;;;;;;4942430;28;20055;-68
2023/08/15 10:15:11;;;;;;;0.10;0.10;;;22.80;99.90;;;;;;4918262;28;20052;-68
2023/08/15 10:17:38;;;;;;;0.03;0.00;;;22.80;99.90;;;;;;4940048;28;20050;-70
2023/08/15 10:20:13;;;;;;;0.10;0.10;;;22.80;99.90;;;;;;4957076;28;20382;-70
2023/08/15 10:22:39;;;;;;;12.32;0.60;;;22.70;99.90;;;;;;4904054;28;20040;-70
2023/08/15 10:25:18;;;;;;;0.00;0.00;;;22.70;99.90;;;;;;4901639;28;20075;-70
2023/08/15 10:27:52;;;;;;;0.80;0.43;;;22.80;99.90;;;;;;4935064;28;20042;-71
2023/08/15 10:30:36;;;;;;;0.00;0.00;;;22.90;99.90;;;;;;4942746;28;20131;-71
2023/08/15 10:33:15;;;;;;;0.10;0.08;;;23.20;99.90;;;;;;4910318;28;20048;-70
2023/08/15 10:35:55;;;;;;;0.22;0.22;;;23.30;99.90;;;;;;4959452;28;20501;-71
2023/08/15 10:38:21;;;;;;;0.17;0.17;;;23.10;99.90;;;;;;4919536;28;20084;-71
2023/08/15 10:40:50;;;;;;;0.00;0.00;;;23.10;99.90;;;;;;4992891;28;20048;-70
2023/08/15 10:43:16;;;;;;;0.00;0.00;;;23.20;99.90;;;;;;4955153;28;20411;-70
2023/08/15 10:45:50;;;;;;;0.00;0.00;;;23.20;99.90;;;;;;4962520;28;20200;-70
2023/08/15 10:48:54;;;;;;;0.00;0.00;;;23.30;99.90;;;;;;4930679;28;20055;-70
2023/08/15 10:51:28;;;;;;;0.05;0.03;;;23.10;99.90;;;;;;4955613;28;20503;-70
2023/08/15 10:53:56;;;;;;;0.00;0.00;;;22.90;99.90;;;;;;4951257;28;20071;-69
2023/08/15 10:56:24;;;;;;;0.00;0.00;;;23.40;99.90;;;;;;4956742;28;20160;-70
2023/08/15 10:58:50;;;;;;;3.70;0.75;;;23.60;99.90;;;;;;4947290;28;20408;-69
2023/08/15 11:01:20;;;;;;;0.10;0.10;;;23.80;99.90;;;;;;4935345;28;20060;-70
2023/08/15 11:03:47;;;;;;;0.10;0.10;;;24.00;99.90;;;;;;4968824;28;20046;-69
2023/08/15 11:06:14;;;;;;;0.73;0.73;;;24.20;99.90;;;;;;4970920;28;20077;-69
2023/08/15 11:08:41;;;;;;;0.00;0.00;;;24.20;99.90;;;;;;4939529;28;20484;-69
2023/08/15 11:11:08;;;;;;;0.00;0.00;;;24.40;99.90;;;;;;4948312;28;20040;-70
2023/08/15 11:13:44;;;;;;;0.00;0.00;;;24.50;99.90;;;;;;4940149;28;20052;-70
2023/08/15 11:16:11;;;;;;;0.38;0.30;;;24.30;99.90;;;;;;4934774;28;20522;-68
2023/08/15 11:18:37;;;;;;;0.43;0.38;;;24.70;99.90;;;;;;4918191;28;20535;-68
2023/08/15 11:21:08;;;;;;;8.48;0.80;;;24.60;99.90;;;;;;4917368;28;20095;-69
2023/08/15 11:23:34;;;;;;;0.00;0.00;;;24.30;99.90;;;;;;4907989;28;20048;-70
2023/08/15 11:26:05;;;;;;;0.00;0.00;;;24.40;99.90;;;;;;4946994;28;20042;-70
2023/08/15 11:28:31;;;;;;;0.00;0.00;;;24.20;99.90;;;;;;4940412;28;20048;-70
2023/08/15 11:30:58;;;;;;;0.10;0.10;;;24.20;99.90;;;;;;4973413;28;20053;-70
2023/08/15 11:33:24;;;;;;;0.00;0.00;;;24.70;99.90;;;;;;4961758;28;20064;-69
2023/08/15 11:35:50;;;;;;;0.00;0.00;;;25.00;99.90;;;;;;4939830;28;20052;-69
2023/08/15 11:38:19;;;;;;;0.30;0.28;;;25.00;99.90;;;;;;4933806;28;20102;-70
2023/08/15 11:40:45;;;;;;;0.15;0.15;;;25.20;99.90;;;;;;4907174;28;20048;-68
2023/08/15 11:43:11;;;;;;;0.00;0.00;;;25.30;99.90;;;;;;4920359;28;20055;-68
2023/08/15 11:45:39;;;;;;;0.00;0.00;;;25.30;99.90;;;;;;4961636;28;20037;-69
2023/08/15 11:48:06;;;;;;;0.00;0.00;;;25.40;99.90;;;;;;4914068;28;20056;-68
2023/08/15 11:50:34;;;;;;;0.00;0.00;;;25.80;99.90;;;;;;4948475;28;20459;-68
2023/08/15 11:53:00;;;;;;;0.00;0.00;;;26.00;99.90;;;;;;4927359;28;20048;-69
2023/08/15 11:55:31;;;;;;;0.00;0.00;;;25.90;99.90;;;;;;4927972;28;20400;-69
2023/08/15 11:57:56;;;;;;;0.43;0.25;;;26.10;99.90;;;;;;4911272;28;20053;-69
2023/08/15 12:00:22;;;;;;;0.00;0.00;;;26.40;99.90;;;;;;4928871;28;20040;-69
2023/08/15 12:02:49;;;;;;;0.00;0.00;;;26.60;99.90;;;;;;4956232;28;20048;-69
2023/08/15 12:05:17;;;;;;;0.00;0.00;;;26.20;99.90;;;;;;4946286;28;20041;-69
2023/08/15 12:07:44;;;;;;;0.22;0.22;;;26.20;99.90;;;;;;4930331;28;20051;-69
2023/08/15 12:10:11;;;;;;;0.00;0.00;;;25.80;99.90;;;;;;4981165;28;20663;-70
2023/08/15 12:12:45;;;;;;;0.00;0.00;;;25.50;99.90;;;;;;4925810;28;20057;-70
2023/08/15 12:15:12;;;;;;;0.00;0.00;;;25.00;99.90;;;;;;4944974;28;20075;-70
2023/08/15 12:17:39;;;;;;;0.00;0.00;;;24.90;99.90;;;;;;4956392;28;20065;-70
2023/08/15 12:20:07;;;;;;;10.13;0.75;;;25.10;99.90;;;;;;4936381;28;20403;-70
2023/08/15 12:22:32;;;;;;;0.00;0.00;;;25.00;99.90;;;;;;4943701;28;20044;-70
2023/08/15 12:24:58;;;;;;;0.30;0.30;;;25.10;99.90;;;;;;4968252;28;20033;-70
2023/08/15 12:27:24;;;;;;;5.95;0.65;;;24.60;99.90;;;;;;4938703;28;20044;-69
2023/08/15 12:29:50;;;;;;;0.10;0.10;;;24.50;99.90;;;;;;4954800;28;20110;-70
2023/08/15 12:32:15;;;;;;;0.10;0.10;;;24.80;99.90;;;;;;4944984;28;20086;-70
2023/08/15 12:34:41;;;;;;;0.00;0.00;;;24.80;99.90;;;;;;4907665;28;20122;-70
2023/08/15 12:37:07;;;;;;;0.00;0.00;;;25.30;99.90;;;;;;4972087;28;20448;-70
2023/08/15 12:39:33;;;;;;;0.08;0.08;;;25.70;99.90;;;;;;4958301;28;20075;-70
2023/08/15 12:41:58;;;;;;;0.15;0.15;;;25.70;99.90;;;;;;4961574;28;20041;-70
2023/08/15 12:44:24;;;;;;;0.00;0.00;;;25.30;99.90;;;;;;4923225;28;20037;-70